createdAt,value
2023-01-09T00:01:32.858Z,-15.06
2023-01-09T00:04:07.837Z,-15.06
2023-01-09T00:06:46.489Z,-15.11
2023-01-09T00:09:26.652Z,-15.14
2023-01-09T00:12:02.834Z,-15.12
2023-01-09T00:18:00.388Z,-15.07
2023-01-09T00:20:34.043Z,-15.08
2023-01-09T00:23:16.686Z,-15.07
2023-01-09T00:26:07.737Z,-15.07
2023-01-09T00:28:50.290Z,-15.07
2023-01-09T00:31:31.028Z,-15.06
2023-01-09T00:34:13.979Z,-15.05
2023-01-09T00:37:03.774Z,-15.04
2023-01-09T00:39:38.373Z,-15.05
2023-01-09T00:42:22.644Z,-15.08
2023-01-09T00:45:06.889Z,-15.09
2023-01-09T00:47:46.577Z,-15.08
2023-01-09T00:50:46.692Z,-15.05
2023-01-09T00:53:27.625Z,-15.05
2023-01-09T00:56:13.731Z,-15.07
2023-01-09T00:58:56.960Z,-15.08
2023-01-09T01:01:31.993Z,-15.14
2023-01-09T01:04:27.342Z,-15.16
2023-01-09T01:07:23.461Z,-15.20
2023-01-09T01:10:04.395Z,-15.23
2023-01-09T01:12:46.450Z,-15.26
2023-01-09T01:15:26.764Z,-15.29
2023-01-09T01:18:06.377Z,-15.31
2023-01-09T01:20:49.204Z,-15.36
2023-01-09T01:23:35.372Z,-15.40
2023-01-09T01:26:23.679Z,-15.40
2023-01-09T01:29:05.576Z,-15.45
2023-01-09T01:31:56.685Z,-15.46
2023-01-09T01:34:32.702Z,-15.48
2023-01-09T01:37:13.873Z,-15.46
2023-01-09T01:40:01.477Z,-15.45
2023-01-09T01:42:37.330Z,-15.45
2023-01-09T01:45:16.207Z,-15.45
2023-01-09T01:47:58.698Z,-15.44
2023-01-09T01:50:51.199Z,-15.44
2023-01-09T01:53:38.688Z,-15.45
2023-01-09T01:56:25.885Z,-15.49
2023-01-09T01:59:30.999Z,-15.52
2023-01-09T02:02:06.589Z,-15.53
2023-01-09T02:04:47.346Z,-15.56
2023-01-09T02:07:22.361Z,-15.54
2023-01-09T02:10:03.524Z,-15.45
2023-01-09T02:12:41.958Z,-15.38
2023-01-09T02:15:30.047Z,-15.36
2023-01-09T02:18:21.113Z,-15.36
2023-01-09T02:24:44.463Z,-15.30
2023-01-09T02:28:10.324Z,-15.28
2023-01-09T02:31:13.051Z,-15.32
2023-01-09T02:34:13.264Z,-15.38
2023-01-09T02:36:58.869Z,-15.40
2023-01-09T02:39:46.058Z,-15.43
2023-01-09T02:42:35.851Z,-15.42
2023-01-09T02:45:22.066Z,-15.40
2023-01-09T02:47:57.253Z,-15.42
2023-01-09T02:50:58.704Z,-15.42
2023-01-09T02:53:51.164Z,-15.40
2023-01-09T02:56:45.003Z,-15.33
2023-01-09T02:59:35.701Z,-15.27
2023-01-09T03:02:27.398Z,-15.24
2023-01-09T03:05:30.564Z,-15.21
2023-01-09T03:08:21.004Z,-15.21
2023-01-09T03:11:09.629Z,-15.16
2023-01-09T03:13:53.046Z,-15.11
2023-01-09T03:16:40.598Z,-15.12
2023-01-09T03:19:19.792Z,-15.12
2023-01-09T03:21:55.910Z,-15.13
2023-01-09T03:24:33.903Z,-15.13
2023-01-09T03:27:17.087Z,-15.16
2023-01-09T03:29:57.114Z,-15.18
2023-01-09T03:32:32.718Z,-15.14
2023-01-09T03:35:11.373Z,-15.14
2023-01-09T03:37:52.010Z,-15.15
2023-01-09T03:40:46.813Z,-15.18
2023-01-09T03:43:25.624Z,-15.23
2023-01-09T03:46:03.817Z,-15.28
2023-01-09T03:48:38.121Z,-15.34
2023-01-09T03:51:17.287Z,-15.38
2023-01-09T03:53:59.079Z,-15.39
2023-01-09T03:56:35.180Z,-15.38
2023-01-09T03:59:12.598Z,-15.37
2023-01-09T04:01:48.734Z,-15.36
2023-01-09T04:04:25.419Z,-15.39
2023-01-09T04:07:14.615Z,-15.45
2023-01-09T04:09:56.425Z,-15.49
2023-01-09T04:12:36.877Z,-15.51
2023-01-09T04:15:15.268Z,-15.51
2023-01-09T04:17:50.342Z,-15.52
2023-01-09T04:20:30.453Z,-15.56
2023-01-09T04:23:05.938Z,-15.56
2023-01-09T04:25:53.853Z,-15.52
2023-01-09T04:28:34.090Z,-15.45
2023-01-09T04:31:09.009Z,-15.39
2023-01-09T04:33:43.747Z,-15.36
2023-01-09T04:36:27.860Z,-15.32
2023-01-09T04:39:01.826Z,-15.31
2023-01-09T04:41:51.425Z,-15.32
2023-01-09T04:44:27.197Z,-15.33
2023-01-09T04:50:33.411Z,-15.42
2023-01-09T04:52:54.550Z,-15.49
2023-01-09T04:56:02.249Z,-15.54
2023-01-09T04:58:47.210Z,-15.57
2023-01-09T05:01:31.053Z,-15.60
2023-01-09T05:07:05.687Z,-15.61
2023-01-09T05:09:48.369Z,-15.61
2023-01-09T05:12:38.384Z,-15.64
2023-01-09T05:15:27.786Z,-15.63
2023-01-09T05:18:06.712Z,-15.59
2023-01-09T05:21:25.960Z,-15.59
2023-01-09T05:24:27.717Z,-15.58
2023-01-09T05:27:08.383Z,-15.55
2023-01-09T05:29:53.986Z,-15.53
2023-01-09T05:32:44.681Z,-15.49
2023-01-09T05:35:35.513Z,-15.47
2023-01-09T05:38:58.815Z,-15.47
2023-01-09T05:41:28.524Z,-15.44
2023-01-09T05:44:09.969Z,-15.38
2023-01-09T05:46:49.878Z,-15.30
2023-01-09T05:49:28.157Z,-15.26
2023-01-09T05:52:12.288Z,-15.23
2023-01-09T05:55:05.976Z,-15.18
2023-01-09T05:57:48.952Z,-15.17
2023-01-09T06:01:11.249Z,-15.16
2023-01-09T06:04:08.943Z,-15.14
2023-01-09T06:07:05.549Z,-15.11
2023-01-09T06:10:05.484Z,-15.11
2023-01-09T06:12:53.653Z,-15.07
2023-01-09T06:15:56.519Z,-15.03
2023-01-09T06:18:35.027Z,-14.97
2023-01-09T06:21:26.882Z,-14.95
2023-01-09T06:24:23.540Z,-14.85
2023-01-09T06:27:05.192Z,-14.71
2023-01-09T06:29:58.476Z,-14.60
2023-01-09T06:32:37.265Z,-14.46
2023-01-09T06:35:15.100Z,-14.34
2023-01-09T06:37:50.398Z,-14.21
2023-01-09T06:40:25.608Z,-14.05
2023-01-09T06:43:07.518Z,-13.88
2023-01-09T06:45:44.996Z,-13.77
2023-01-09T06:48:34.221Z,-13.68
2023-01-09T06:51:06.930Z,-13.59
2023-01-09T06:57:15.386Z,-13.33
2023-01-09T07:00:04.355Z,-13.20
2023-01-09T07:02:45.975Z,-13.09
2023-01-09T07:05:21.790Z,-13.02
2023-01-09T07:08:06.080Z,-12.97
2023-01-09T07:10:46.522Z,-12.92
2023-01-09T07:13:21.707Z,-12.82
2023-01-09T07:16:01.338Z,-12.76
2023-01-09T07:18:40.431Z,-12.69
2023-01-09T07:21:18.780Z,-12.63
2023-01-09T07:23:55.621Z,-12.59
2023-01-09T07:26:34.788Z,-12.54
2023-01-09T07:29:41.762Z,-12.47
2023-01-09T07:32:39.991Z,-12.35
2023-01-09T07:35:15.656Z,-12.22
2023-01-09T07:37:58.348Z,-12.10
2023-01-09T07:40:36.483Z,-11.99
2023-01-09T07:43:12.315Z,-11.89
2023-01-09T07:45:47.911Z,-11.77
2023-01-09T07:48:33.107Z,-11.67
2023-01-09T07:51:35.867Z,-11.60
2023-01-09T07:54:16.561Z,-11.53
2023-01-09T07:57:00.602Z,-11.49
2023-01-09T07:59:43.822Z,-11.34
2023-01-09T08:02:22.701Z,-11.22
2023-01-09T08:05:01.045Z,-11.11
2023-01-09T08:07:38.521Z,-11.01
2023-01-09T08:10:36.584Z,-10.96
2023-01-09T08:13:34.641Z,-10.85
2023-01-09T08:16:16.490Z,-10.69
2023-01-09T08:22:34.197Z,-10.45
2023-01-09T08:25:12.216Z,-10.35
2023-01-09T08:30:47.619Z,-10.13
2023-01-09T08:33:47.055Z,-10.04
2023-01-09T08:36:40.082Z,-9.94
2023-01-09T08:39:35.520Z,-9.86
2023-01-09T08:45:44.697Z,-9.74
2023-01-09T08:51:38.116Z,-9.54
2023-01-09T08:54:12.142Z,-9.48
2023-01-09T08:56:46.581Z,-9.40
2023-01-09T09:02:49.344Z,-9.18
2023-01-09T09:05:50.632Z,-9.02
2023-01-09T09:08:29.049Z,-8.92
2023-01-09T09:11:14.793Z,-8.86
2023-01-09T09:13:59.512Z,-8.80
2023-01-09T09:16:54.808Z,-8.80
2023-01-09T09:19:29.251Z,-8.70
2023-01-09T09:22:11.992Z,-8.70
2023-01-09T09:25:19.781Z,-8.60
2023-01-09T09:28:09.175Z,-8.41
2023-01-09T09:30:56.566Z,-8.41
2023-01-09T09:33:56.638Z,-8.27
2023-01-09T09:40:18.675Z,-8.20
2023-01-09T09:43:32.278Z,-8.08
2023-01-09T09:46:30.362Z,-7.93
2023-01-09T09:49:36.574Z,-7.67
2023-01-09T09:55:43.050Z,-7.47
2023-01-09T09:58:45.242Z,-7.49
2023-01-09T10:01:32.299Z,-7.49
2023-01-09T10:04:17.789Z,-7.49
2023-01-09T10:07:01.454Z,-7.49
2023-01-09T10:12:57.408Z,-7.45
2023-01-09T10:15:54.920Z,-7.42
2023-01-09T10:19:05.595Z,-7.40
2023-01-09T10:22:25.177Z,-7.35
2023-01-09T10:25:24.144Z,-7.30
2023-01-09T10:28:38.785Z,-7.29
2023-01-09T10:31:22.569Z,-7.33
2023-01-09T10:34:34.454Z,-7.34
2023-01-09T10:37:19.932Z,-7.29
2023-01-09T10:40:33.444Z,-7.25
2023-01-09T10:43:29.303Z,-7.21
2023-01-09T10:46:06.244Z,-7.17
2023-01-09T10:48:42.020Z,-7.13
2023-01-09T10:51:25.637Z,-7.10
2023-01-09T10:53:58.684Z,-7.04
2023-01-09T10:56:37.927Z,-7.00
2023-01-09T10:59:11.425Z,-6.99
2023-01-09T11:01:44.720Z,-6.97
2023-01-09T11:04:34.291Z,-6.97
2023-01-09T11:07:18.044Z,-7.02
2023-01-09T11:10:08.645Z,-7.05
2023-01-09T11:12:42.312Z,-7.03
2023-01-09T11:15:28.923Z,-7.01
2023-01-09T11:18:21.370Z,-6.99
2023-01-09T11:20:54.807Z,-6.95
2023-01-09T11:23:35.092Z,-6.94
2023-01-09T11:26:11.004Z,-6.93
2023-01-09T11:28:43.917Z,-6.88
2023-01-09T11:31:18.483Z,-6.87
2023-01-09T11:33:52.053Z,-6.83
2023-01-09T11:36:26.440Z,-6.83
2023-01-09T11:39:02.873Z,-6.83
2023-01-09T11:41:37.479Z,-6.84
2023-01-09T11:44:12.716Z,-6.82
2023-01-09T11:46:47.022Z,-6.86
2023-01-09T11:49:31.960Z,-6.88
2023-01-09T11:52:21.122Z,-6.91
2023-01-09T11:55:04.855Z,-6.93
2023-01-09T11:57:37.689Z,-6.89
2023-01-09T12:00:31.148Z,-6.88
2023-01-09T12:03:20.327Z,-6.87
2023-01-09T12:06:06.532Z,-6.85
2023-01-09T12:08:56.712Z,-6.87
2023-01-09T12:11:46.250Z,-6.86
2023-01-09T12:14:47.872Z,-6.88
2023-01-09T12:17:26.071Z,-6.91
2023-01-09T12:20:18.751Z,-6.92
2023-01-09T12:23:32.769Z,-6.89
2023-01-09T12:26:19.171Z,-6.87
2023-01-09T12:29:03.009Z,-6.87
2023-01-09T12:31:46.742Z,-6.84
2023-01-09T12:35:00.628Z,-6.83
2023-01-09T12:38:06.385Z,-6.87
2023-01-09T12:40:50.608Z,-6.94
2023-01-09T12:43:35.512Z,-6.95
2023-01-09T12:46:19.339Z,-6.96
2023-01-09T12:49:17.590Z,-6.97
2023-01-09T12:52:10.934Z,-6.95
2023-01-09T12:54:58.340Z,-6.95
2023-01-09T12:57:44.934Z,-6.94
2023-01-09T13:00:23.666Z,-6.91
2023-01-09T13:03:12.983Z,-6.91
2023-01-09T13:05:53.851Z,-6.94
2023-01-09T13:08:40.290Z,-6.95
2023-01-09T13:11:24.081Z,-6.94
2023-01-09T13:14:17.980Z,-6.95
2023-01-09T13:16:54.678Z,-6.97
2023-01-09T13:19:39.798Z,-7.01
2023-01-09T13:22:14.899Z,-7.07
2023-01-09T13:25:17.265Z,-7.17
2023-01-09T13:27:58.193Z,-7.26
2023-01-09T13:30:54.586Z,-7.32
2023-01-09T13:33:35.337Z,-7.39
2023-01-09T13:36:09.972Z,-7.48
2023-01-09T13:38:43.785Z,-7.54
2023-01-09T13:41:36.680Z,-7.58
2023-01-09T13:44:28.050Z,-7.64
2023-01-09T13:47:03.742Z,-7.71
2023-01-09T13:49:52.646Z,-7.78
2023-01-09T13:52:43.731Z,-7.87
2023-01-09T13:55:25.941Z,-7.94
2023-01-09T13:58:15.432Z,-8.02
2023-01-09T14:00:51.905Z,-8.08
2023-01-09T14:03:40.416Z,-8.15
2023-01-09T14:06:17.786Z,-8.21
2023-01-09T14:08:55.969Z,-8.25
2023-01-09T14:11:29.698Z,-8.29
2023-01-09T14:14:05.939Z,-8.34
2023-01-09T14:16:39.923Z,-8.40
2023-01-09T14:19:41.207Z,-8.46
2023-01-09T14:22:38.094Z,-8.53
2023-01-09T14:25:12.969Z,-8.60
2023-01-09T14:28:11.745Z,-8.65
2023-01-09T14:31:02.344Z,-8.71
2023-01-09T14:33:40.171Z,-8.77
2023-01-09T14:36:23.261Z,-8.82
2023-01-09T14:39:04.674Z,-8.86
2023-01-09T14:42:01.700Z,-8.90
2023-01-09T14:45:01.106Z,-8.95
2023-01-09T14:47:41.623Z,-9.00
2023-01-09T14:50:38.270Z,-9.04
2023-01-09T14:53:25.875Z,-9.08
2023-01-09T14:56:06.378Z,-9.17
2023-01-09T14:58:40.603Z,-9.20
2023-01-09T15:01:21.580Z,-9.27
2023-01-09T15:04:02.056Z,-9.30
2023-01-09T15:06:39.096Z,-9.34
2023-01-09T15:09:42.345Z,-9.39
2023-01-09T15:12:22.936Z,-9.40
2023-01-09T15:15:00.049Z,-9.43
2023-01-09T15:17:36.832Z,-9.50
2023-01-09T15:20:21.679Z,-9.52
2023-01-09T15:22:55.951Z,-9.56
2023-01-09T15:25:38.467Z,-9.58
2023-01-09T15:28:22.910Z,-9.64
2023-01-09T15:31:04.438Z,-9.69
2023-01-09T15:33:40.804Z,-9.77
2023-01-09T15:36:24.866Z,-9.78
2023-01-09T15:38:59.584Z,-9.84
2023-01-09T15:41:52.213Z,-9.84
2023-01-09T15:44:30.565Z,-9.84
2023-01-09T15:47:07.279Z,-9.90
2023-01-09T15:49:40.995Z,-9.97
2023-01-09T15:52:18.646Z,-9.97
2023-01-09T15:54:52.566Z,-10.01
2023-01-09T15:57:33.488Z,-10.09
2023-01-09T16:00:35.687Z,-10.09
2023-01-09T16:03:24.027Z,-10.11
2023-01-09T16:06:05.875Z,-10.15
2023-01-09T16:08:46.804Z,-10.16
2023-01-09T16:11:37.939Z,-10.18
2023-01-09T16:14:24.377Z,-10.18
2023-01-09T16:17:07.121Z,-10.17
2023-01-09T16:19:50.775Z,-10.20
2023-01-09T16:22:28.648Z,-10.19
2023-01-09T16:25:34.797Z,-10.20
2023-01-09T16:28:22.606Z,-10.23
2023-01-09T16:31:10.091Z,-10.24
2023-01-09T16:33:47.021Z,-10.26
2023-01-09T16:36:22.156Z,-10.27
2023-01-09T16:38:57.224Z,-10.28
2023-01-09T16:41:50.311Z,-10.30
2023-01-09T16:44:24.217Z,-10.32
2023-01-09T16:46:58.810Z,-10.33
2023-01-09T16:49:33.477Z,-10.33
2023-01-09T16:52:12.401Z,-10.34
2023-01-09T16:54:48.238Z,-10.35
2023-01-09T16:57:23.889Z,-10.39
2023-01-09T17:00:00.830Z,-10.42
2023-01-09T17:02:35.125Z,-10.46
2023-01-09T17:05:09.389Z,-10.47
2023-01-09T17:07:44.217Z,-10.48
2023-01-09T17:10:22.454Z,-10.51
2023-01-09T17:12:57.442Z,-10.52
2023-01-09T17:15:32.580Z,-10.56
2023-01-09T17:18:07.171Z,-10.57
2023-01-09T17:20:43.608Z,-10.61
2023-01-09T17:23:17.731Z,-10.63
2023-01-09T17:26:15.314Z,-10.64
2023-01-09T17:28:52.380Z,-10.67
2023-01-09T17:31:26.452Z,-10.69
2023-01-09T17:34:01.216Z,-10.74
2023-01-09T17:36:35.720Z,-10.74
2023-01-09T17:39:10.979Z,-10.75
2023-01-09T17:41:44.863Z,-10.78
2023-01-09T17:44:19.177Z,-10.80
2023-01-09T17:46:53.085Z,-10.80
2023-01-09T17:49:27.953Z,-10.82
2023-01-09T17:52:01.827Z,-10.84
2023-01-09T17:54:35.883Z,-10.85
2023-01-09T17:57:12.353Z,-10.87
2023-01-09T17:59:46.804Z,-10.88
2023-01-09T18:02:21.258Z,-10.89
2023-01-09T18:04:55.656Z,-10.90
2023-01-09T18:07:29.798Z,-10.91
2023-01-09T18:10:02.639Z,-10.94
2023-01-09T18:12:48.980Z,-10.95
2023-01-09T18:15:24.745Z,-10.98
2023-01-09T18:17:59.613Z,-10.99
2023-01-09T18:20:33.527Z,-10.98
2023-01-09T18:23:09.347Z,-10.98
2023-01-09T18:25:44.413Z,-10.99
2023-01-09T18:28:18.882Z,-11.00
2023-01-09T18:30:53.425Z,-11.01
2023-01-09T18:33:30.141Z,-11.02
2023-01-09T18:36:12.039Z,-11.02
2023-01-09T18:38:49.271Z,-11.02
2023-01-09T18:41:24.420Z,-11.01
2023-01-09T18:44:02.843Z,-11.02
2023-01-09T18:46:41.002Z,-11.00
2023-01-09T18:49:14.831Z,-11.00
2023-01-09T18:51:48.897Z,-11.00
2023-01-09T18:54:22.850Z,-11.02
2023-01-09T18:56:57.246Z,-11.01
2023-01-09T18:59:33.228Z,-11.03
2023-01-09T19:02:07.352Z,-11.04
2023-01-09T19:04:41.941Z,-11.06
2023-01-09T19:07:16.709Z,-11.06
2023-01-09T19:09:50.849Z,-11.07
2023-01-09T19:12:27.771Z,-11.08
2023-01-09T19:15:02.343Z,-11.12
2023-01-09T19:17:37.049Z,-11.10
2023-01-09T19:20:11.599Z,-11.10
2023-01-09T19:22:45.781Z,-11.08
2023-01-09T19:25:19.704Z,-11.10
2023-01-09T19:27:55.442Z,-11.09
2023-01-09T19:30:30.644Z,-11.11
2023-01-09T19:33:05.401Z,-11.13
2023-01-09T19:35:39.764Z,-11.12
2023-01-09T19:38:13.956Z,-11.13
2023-01-09T19:40:47.892Z,-11.15
2023-01-09T19:43:27.631Z,-11.18
2023-01-09T19:46:01.485Z,-11.23
2023-01-09T19:48:35.649Z,-11.25
2023-01-09T19:51:11.468Z,-11.24
2023-01-09T19:53:45.692Z,-11.25
2023-01-09T19:56:23.611Z,-11.26
2023-01-09T19:59:04.222Z,-11.26
2023-01-09T20:01:42.040Z,-11.28
2023-01-09T20:04:17.607Z,-11.30
2023-01-09T20:06:53.584Z,-11.31
2023-01-09T20:09:29.308Z,-11.32
2023-01-09T20:12:05.286Z,-11.31
2023-01-09T20:14:40.014Z,-11.28
2023-01-09T20:17:14.691Z,-11.27
2023-01-09T20:19:48.439Z,-11.30
2023-01-09T20:22:21.424Z,-11.32
2023-01-09T20:24:55.067Z,-11.34
2023-01-09T20:27:28.838Z,-11.34
2023-01-09T20:30:01.805Z,-11.35
2023-01-09T20:32:37.352Z,-11.33
2023-01-09T20:35:11.680Z,-11.33
2023-01-09T20:37:45.355Z,-11.35
2023-01-09T20:40:18.594Z,-11.36
2023-01-09T20:42:52.080Z,-11.35
2023-01-09T20:45:27.550Z,-11.37
2023-01-09T20:48:01.699Z,-11.40
2023-01-09T20:50:36.215Z,-11.42
2023-01-09T20:53:10.057Z,-11.43
2023-01-09T20:55:43.879Z,-11.43
2023-01-09T20:58:18.071Z,-11.47
2023-01-09T21:00:52.502Z,-11.49
2023-01-09T21:03:26.574Z,-11.50
2023-01-09T21:06:00.721Z,-11.49
2023-01-09T21:08:35.343Z,-11.44
2023-01-09T21:11:09.498Z,-11.47
2023-01-09T21:13:44.468Z,-11.46
2023-01-09T21:16:22.127Z,-11.46
2023-01-09T21:18:56.228Z,-11.47
2023-01-09T21:21:30.225Z,-11.43
2023-01-09T21:24:04.751Z,-11.42
2023-01-09T21:26:38.920Z,-11.43
2023-01-09T21:29:15.752Z,-11.44
2023-01-09T21:31:50.407Z,-11.45
2023-01-09T21:34:24.659Z,-11.45
2023-01-09T21:36:58.724Z,-11.46
2023-01-09T21:39:33.034Z,-11.46
2023-01-09T21:42:24.959Z,-11.43
2023-01-09T21:45:15.895Z,-11.42
2023-01-09T21:47:49.791Z,-11.43
2023-01-09T21:50:22.719Z,-11.46
2023-01-09T21:52:56.625Z,-11.46
2023-01-09T21:55:32.378Z,-11.48
2023-01-09T21:58:06.421Z,-11.50
2023-01-09T22:00:41.311Z,-11.52
2023-01-09T22:03:19.071Z,-11.53
2023-01-09T22:05:52.621Z,-11.55
2023-01-09T22:08:26.439Z,-11.55
2023-01-09T22:11:01.548Z,-11.56
2023-01-09T22:13:35.480Z,-11.57
2023-01-09T22:16:11.416Z,-11.59
2023-01-09T22:18:45.244Z,-11.59
2023-01-09T22:21:19.417Z,-11.60
2023-01-09T22:23:52.454Z,-11.60
2023-01-09T22:26:26.238Z,-11.60
2023-01-09T22:29:00.165Z,-11.59
2023-01-09T22:31:35.250Z,-11.59
2023-01-09T22:34:10.923Z,-11.57
2023-01-09T22:36:46.182Z,-11.56
2023-01-09T22:39:21.139Z,-11.56
2023-01-09T22:41:55.685Z,-11.55
2023-01-09T22:44:29.377Z,-11.54
2023-01-09T22:47:04.787Z,-11.53
2023-01-09T22:49:52.204Z,-11.52
2023-01-09T22:52:14.899Z,-11.53
2023-01-09T22:54:49.729Z,-11.53
2023-01-09T22:57:24.527Z,-11.54
2023-01-09T22:59:57.409Z,-11.54
2023-01-09T23:02:31.150Z,-11.54
2023-01-09T23:05:05.176Z,-11.54
2023-01-09T23:07:39.850Z,-11.55
2023-01-09T23:10:16.067Z,-11.55
2023-01-09T23:12:50.553Z,-11.53
2023-01-09T23:15:24.773Z,-11.51
2023-01-09T23:17:57.681Z,-11.52
2023-01-09T23:20:31.257Z,-11.51
2023-01-09T23:23:06.197Z,-11.53
2023-01-09T23:25:40.010Z,-11.53
2023-01-09T23:28:13.692Z,-11.54
2023-01-09T23:30:50.603Z,-11.53
2023-01-09T23:33:24.389Z,-11.55
2023-01-09T23:35:58.907Z,-11.52
2023-01-09T23:38:32.621Z,-11.54
2023-01-09T23:41:08.118Z,-11.54
2023-01-09T23:43:44.562Z,-11.55
2023-01-09T23:46:18.316Z,-11.57
2023-01-09T23:48:52.073Z,-11.59
2023-01-09T23:51:26.284Z,-11.59
2023-01-09T23:54:00.306Z,-11.59
2023-01-09T23:56:34.850Z,-11.60
2023-01-09T23:59:12.985Z,-11.61
